sensor_id;sensor_type;location;lat;lon;timestamp;temperature;humidity
4399;DHT22;2213;49.720;7.296;2023-08-21T00:00:42;21.00;99.90
4399;DHT22;2213;49.720;7.296;2023-08-21T00:03:12;21.00;99.90
4399;DHT22;2213;49.720;7.296;2023-08-21T00:05:42;21.10;99.90
4399;DHT22;2213;49.720;7.296;2023-08-21T00:08:12;21.10;99.90
4399;DHT22;2213;49.720;7.296;2023-08-21T00:10:41;21.10;99.90
4399;DHT22;2213;49.720;7.296;2023-08-21T00:13:11;21.00;99.90
4399;DHT22;2213;49.720;7.296;2023-08-21T00:15:41;20.90;99.90
4399;DHT22;2213;49.720;7.296;2023-08-21T00:18:12;20.90;99.90
4399;DHT22;2213;49.720;7.296;2023-08-21T00:20:42;21.00;99.90
4399;DHT22;2213;49.720;7.296;2023-08-21T00:23:12;20.90;99.90
4399;DHT22;2213;49.720;7.296;2023-08-21T00:25:46;21.00;99.90
4399;DHT22;2213;49.720;7.296;2023-08-21T00:28:18;20.90;99.90
4399;DHT22;2213;49.720;7.296;2023-08-21T00:30:49;20.90;99.90
4399;DHT22;2213;49.720;7.296;2023-08-21T00:33:20;20.90;99.90
4399;DHT22;2213;49.720;7.296;2023-08-21T00:35:50;20.90;99.90
4399;DHT22;2213;49.720;7.296;2023-08-21T00:38:20;20.80;99.90
4399;DHT22;2213;49.720;7.296;2023-08-21T00:40:50;20.80;99.90
4399;DHT22;2213;49.720;7.296;2023-08-21T00:43:20;20.70;99.90
4399;DHT22;2213;49.720;7.296;2023-08-21T00:45:50;20.70;99.90
4399;DHT22;2213;49.720;7.296;2023-08-21T00:48:20;20.80;99.90
4399;DHT22;2213;49.720;7.296;2023-08-21T00:50:51;20.50;99.90
4399;DHT22;2213;49.720;7.296;2023-08-21T00:53:20;20.50;99.90
4399;DHT22;2213;49.720;7.296;2023-08-21T00:55:51;20.40;99.90
4399;DHT22;2213;49.720;7.296;2023-08-21T00:58:22;20.40;99.90
4399;DHT22;2213;49.720;7.296;2023-08-21T01:00:52;20.30;99.90
4399;DHT22;2213;49.720;7.296;2023-08-21T01:03:23;20.50;99.90
4399;DHT22;2213;49.720;7.296;2023-08-21T01:05:54;20.40;99.90
4399;DHT22;2213;49.720;7.296;2023-08-21T01:08:29;20.50;99.90
4399;DHT22;2213;49.720;7.296;2023-08-21T01:11:09;20.50;99.90
4399;DHT22;2213;49.720;7.296;2023-08-21T01:14:00;20.60;99.90
4399;DHT22;2213;49.720;7.296;2023-08-21T01:16:37;20.40;99.90
4399;DHT22;2213;49.720;7.296;2023-08-21T01:19:17;20.40;99.90
4399;DHT22;2213;49.720;7.296;2023-08-21T01:21:54;20.40;99.90
4399;DHT22;2213;49.720;7.296;2023-08-21T01:24:26;20.40;99.90
4399;DHT22;2213;49.720;7.296;2023-08-21T01:26:56;20.40;99.90
4399;DHT22;2213;49.720;7.296;2023-08-21T01:29:26;20.40;99.90
4399;DHT22;2213;49.720;7.296;2023-08-21T01:32:02;20.50;99.90
4399;DHT22;2213;49.720;7.296;2023-08-21T01:34:37;20.50;99.90
4399;DHT22;2213;49.720;7.296;2023-08-21T01:37:09;20.40;99.90
4399;DHT22;2213;49.720;7.296;2023-08-21T01:39:41;20.30;99.90
4399;DHT22;2213;49.720;7.296;2023-08-21T01:42:12;20.30;99.90
4399;DHT22;2213;49.720;7.296;2023-08-21T01:44:42;20.30;99.90
4399;DHT22;2213;49.720;7.296;2023-08-21T01:47:13;20.30;99.90
4399;DHT22;2213;49.720;7.296;2023-08-21T01:49:42;20.20;99.90
4399;DHT22;2213;49.720;7.296;2023-08-21T01:52:12;20.30;99.90
4399;DHT22;2213;49.720;7.296;2023-08-21T01:54:44;20.30;99.90
4399;DHT22;2213;49.720;7.296;2023-08-21T01:57:16;20.30;99.90
4399;DHT22;2213;49.720;7.296;2023-08-21T01:59:46;20.20;99.90
4399;DHT22;2213;49.720;7.296;2023-08-21T02:02:17;20.20;99.90
4399;DHT22;2213;49.720;7.296;2023-08-21T02:04:46;20.20;99.90
4399;DHT22;2213;49.720;7.296;2023-08-21T02:07:16;20.20;99.90
4399;DHT22;2213;49.720;7.296;2023-08-21T02:09:48;20.20;99.90
4399;DHT22;2213;49.720;7.296;2023-08-21T02:12:18;20.20;99.90
4399;DHT22;2213;49.720;7.296;2023-08-21T02:14:48;20.10;99.90
4399;DHT22;2213;49.720;7.296;2023-08-21T02:17:18;20.10;99.90
4399;DHT22;2213;49.720;7.296;2023-08-21T02:19:47;20.10;99.90
4399;DHT22;2213;49.720;7.296;2023-08-21T02:22:17;20.10;99.90
4399;DHT22;2213;49.720;7.296;2023-08-21T02:24:49;20.20;99.90
4399;DHT22;2213;49.720;7.296;2023-08-21T02:27:19;20.20;99.90
4399;DHT22;2213;49.720;7.296;2023-08-21T02:29:50;20.00;99.90
4399;DHT22;2213;49.720;7.296;2023-08-21T02:32:19;20.00;99.90
4399;DHT22;2213;49.720;7.296;2023-08-21T02:34:50;20.10;99.90
4399;DHT22;2213;49.720;7.296;2023-08-21T02:37:20;20.10;99.90
4399;DHT22;2213;49.720;7.296;2023-08-21T02:39:52;20.10;99.90
4399;DHT22;2213;49.720;7.296;2023-08-21T02:42:23;20.00;99.90
4399;DHT22;2213;49.720;7.296;2023-08-21T02:44:52;20.00;99.90
4399;DHT22;2213;49.720;7.296;2023-08-21T02:47:21;19.90;99.90
4399;DHT22;2213;49.720;7.296;2023-08-21T02:49:52;20.00;99.90
4399;DHT22;2213;49.720;7.296;2023-08-21T02:52:22;19.90;99.90
4399;DHT22;2213;49.720;7.296;2023-08-21T02:54:54;20.00;99.90
4399;DHT22;2213;49.720;7.296;2023-08-21T02:57:24;19.90;99.90
4399;DHT22;2213;49.720;7.296;2023-08-21T02:59:54;19.80;99.90
4399;DHT22;2213;49.720;7.296;2023-08-21T03:02:24;19.70;99.90
4399;DHT22;2213;49.720;7.296;2023-08-21T03:04:55;19.70;99.90
4399;DHT22;2213;49.720;7.296;2023-08-21T03:07:26;19.70;99.90
4399;DHT22;2213;49.720;7.296;2023-08-21T03:09:58;19.60;99.90
4399;DHT22;2213;49.720;7.296;2023-08-21T03:12:29;19.70;99.90
4399;DHT22;2213;49.720;7.296;2023-08-21T03:14:58;19.80;99.90
4399;DHT22;2213;49.720;7.296;2023-08-21T03:17:28;19.70;99.90
4399;DHT22;2213;49.720;7.296;2023-08-21T03:19:59;19.70;99.90
4399;DHT22;2213;49.720;7.296;2023-08-21T03:22:32;19.70;99.90
4399;DHT22;2213;49.720;7.296;2023-08-21T03:25:05;19.70;99.90
4399;DHT22;2213;49.720;7.296;2023-08-21T03:27:34;19.80;99.90
4399;DHT22;2213;49.720;7.296;2023-08-21T03:30:07;19.80;99.90
4399;DHT22;2213;49.720;7.296;2023-08-21T03:32:37;19.80;99.90
4399;DHT22;2213;49.720;7.296;2023-08-21T03:35:07;19.70;99.90
4399;DHT22;2213;49.720;7.296;2023-08-21T03:37:38;19.60;99.90
4399;DHT22;2213;49.720;7.296;2023-08-21T03:40:11;19.70;99.90
4399;DHT22;2213;49.720;7.296;2023-08-21T03:42:41;19.70;99.90
4399;DHT22;2213;49.720;7.296;2023-08-21T03:45:11;19.60;99.90
4399;DHT22;2213;49.720;7.296;2023-08-21T03:47:41;19.50;99.90
4399;DHT22;2213;49.720;7.296;2023-08-21T03:50:11;19.50;99.90
4399;DHT22;2213;49.720;7.296;2023-08-21T03:52:41;19.40;99.90
4399;DHT22;2213;49.720;7.296;2023-08-21T03:55:13;19.40;99.90
4399;DHT22;2213;49.720;7.296;2023-08-21T03:57:43;19.50;99.90
4399;DHT22;2213;49.720;7.296;2023-08-21T04:00:13;19.50;99.90
4399;DHT22;2213;49.720;7.296;2023-08-21T04:02:43;19.50;99.90
4399;DHT22;2213;49.720;7.296;2023-08-21T04:05:14;19.40;99.90
4399;DHT22;2213;49.720;7.296;2023-08-21T04:07:44;19.40;99.90
4399;DHT22;2213;49.720;7.296;2023-08-21T04:10:15;19.40;99.90
4399;DHT22;2213;49.720;7.296;2023-08-21T04:12:45;19.40;99.90
4399;DHT22;2213;49.720;7.296;2023-08-21T04:15:14;19.30;99.90
4399;DHT22;2213;49.720;7.296;2023-08-21T04:17:44;19.40;99.90
4399;DHT22;2213;49.720;7.296;2023-08-21T04:20:13;19.50;99.90
4399;DHT22;2213;49.720;7.296;2023-08-21T04:22:42;19.40;99.90
4399;DHT22;2213;49.720;7.296;2023-08-21T04:25:11;19.40;99.90
4399;DHT22;2213;49.720;7.296;2023-08-21T04:27:41;19.40;99.90
4399;DHT22;2213;49.720;7.296;2023-08-21T04:30:12;19.30;99.90
4399;DHT22;2213;49.720;7.296;2023-08-21T04:32:43;19.30;99.90
4399;DHT22;2213;49.720;7.296;2023-08-21T04:35:14;19.20;99.90
4399;DHT22;2213;49.720;7.296;2023-08-21T04:37:46;19.20;99.90
4399;DHT22;2213;49.720;7.296;2023-08-21T04:40:16;19.20;99.90
4399;DHT22;2213;49.720;7.296;2023-08-21T04:42:49;19.10;99.90
4399;DHT22;2213;49.720;7.296;2023-08-21T04:45:20;19.20;99.90
4399;DHT22;2213;49.720;7.296;2023-08-21T04:47:49;19.20;99.90
4399;DHT22;2213;49.720;7.296;2023-08-21T04:50:20;19.10;99.90
4399;DHT22;2213;49.720;7.296;2023-08-21T04:52:51;19.00;99.90
4399;DHT22;2213;49.720;7.296;2023-08-21T04:55:21;19.00;99.90
4399;DHT22;2213;49.720;7.296;2023-08-21T04:57:54;19.00;99.90
4399;DHT22;2213;49.720;7.296;2023-08-21T05:00:25;19.10;99.90
4399;DHT22;2213;49.720;7.296;2023-08-21T05:02:56;19.20;99.90
4399;DHT22;2213;49.720;7.296;2023-08-21T05:05:27;19.20;99.90
4399;DHT22;2213;49.720;7.296;2023-08-21T05:07:57;19.20;99.90
4399;DHT22;2213;49.720;7.296;2023-08-21T05:10:28;19.10;99.90
4399;DHT22;2213;49.720;7.296;2023-08-21T05:12:58;19.10;99.90
4399;DHT22;2213;49.720;7.296;2023-08-21T05:15:29;19.10;99.90
4399;DHT22;2213;49.720;7.296;2023-08-21T05:17:59;19.10;99.90
4399;DHT22;2213;49.720;7.296;2023-08-21T05:20:28;19.00;99.90
4399;DHT22;2213;49.720;7.296;2023-08-21T05:22:57;19.10;99.90
4399;DHT22;2213;49.720;7.296;2023-08-21T05:25:27;19.10;99.90
4399;DHT22;2213;49.720;7.296;2023-08-21T05:27:58;19.00;99.90
4399;DHT22;2213;49.720;7.296;2023-08-21T05:30:28;19.10;99.90
4399;DHT22;2213;49.720;7.296;2023-08-21T05:32:58;19.10;99.90
4399;DHT22;2213;49.720;7.296;2023-08-21T05:35:28;19.10;99.90
4399;DHT22;2213;49.720;7.296;2023-08-21T05:37:59;19.10;99.90
4399;DHT22;2213;49.720;7.296;2023-08-21T05:40:29;19.10;99.90
4399;DHT22;2213;49.720;7.296;2023-08-21T05:43:01;19.20;99.90
4399;DHT22;2213;49.720;7.296;2023-08-21T05:45:30;19.10;99.90
4399;DHT22;2213;49.720;7.296;2023-08-21T05:47:59;19.00;99.90
4399;DHT22;2213;49.720;7.296;2023-08-21T05:50:29;19.00;99.90
4399;DHT22;2213;49.720;7.296;2023-08-21T05:52:59;19.20;99.90
4399;DHT22;2213;49.720;7.296;2023-08-21T05:55:29;19.20;99.90
4399;DHT22;2213;49.720;7.296;2023-08-21T05:58:00;19.20;99.90
4399;DHT22;2213;49.720;7.296;2023-08-21T06:00:29;19.10;99.90
4399;DHT22;2213;49.720;7.296;2023-08-21T06:02:59;19.20;99.90
4399;DHT22;2213;49.720;7.296;2023-08-21T06:05:30;19.30;99.90
4399;DHT22;2213;49.720;7.296;2023-08-21T06:08:00;19.30;99.90
4399;DHT22;2213;49.720;7.296;2023-08-21T06:10:31;19.40;99.90
4399;DHT22;2213;49.720;7.296;2023-08-21T06:13:03;19.40;99.90
4399;DHT22;2213;49.720;7.296;2023-08-21T06:15:33;19.40;99.90
4399;DHT22;2213;49.720;7.296;2023-08-21T06:18:03;19.40;99.90
4399;DHT22;2213;49.720;7.296;2023-08-21T06:20:34;19.50;99.90
4399;DHT22;2213;49.720;7.296;2023-08-21T06:23:04;19.50;99.90
4399;DHT22;2213;49.720;7.296;2023-08-21T06:25:34;19.60;99.90
4399;DHT22;2213;49.720;7.296;2023-08-21T06:28:05;19.60;99.90
4399;DHT22;2213;49.720;7.296;2023-08-21T06:30:35;19.60;99.90
4399;DHT22;2213;49.720;7.296;2023-08-21T06:33:05;19.70;99.90
4399;DHT22;2213;49.720;7.296;2023-08-21T06:35:36;19.80;99.90
4399;DHT22;2213;49.720;7.296;2023-08-21T06:38:07;19.80;99.90
4399;DHT22;2213;49.720;7.296;2023-08-21T06:40:37;19.90;99.90
4399;DHT22;2213;49.720;7.296;2023-08-21T06:43:08;19.90;99.90
4399;DHT22;2213;49.720;7.296;2023-08-21T06:45:39;20.00;99.90
4399;DHT22;2213;49.720;7.296;2023-08-21T06:48:10;20.00;99.90
4399;DHT22;2213;49.720;7.296;2023-08-21T06:50:40;20.10;99.90
4399;DHT22;2213;49.720;7.296;2023-08-21T06:53:10;20.10;99.90
4399;DHT22;2213;49.720;7.296;2023-08-21T06:55:40;20.10;99.90
4399;DHT22;2213;49.720;7.296;2023-08-21T06:58:12;20.10;99.90
4399;DHT22;2213;49.720;7.296;2023-08-21T07:00:41;20.20;99.90
4399;DHT22;2213;49.720;7.296;2023-08-21T07:03:11;20.20;99.90
4399;DHT22;2213;49.720;7.296;2023-08-21T07:05:45;20.30;99.90
4399;DHT22;2213;49.720;7.296;2023-08-21T07:08:15;20.30;99.90
4399;DHT22;2213;49.720;7.296;2023-08-21T07:10:45;20.40;99.90
4399;DHT22;2213;49.720;7.296;2023-08-21T07:13:19;20.40;99.90
4399;DHT22;2213;49.720;7.296;2023-08-21T07:15:52;20.50;99.90
4399;DHT22;2213;49.720;7.296;2023-08-21T07:18:24;20.50;99.90
4399;DHT22;2213;49.720;7.296;2023-08-21T07:20:55;20.60;99.90
4399;DHT22;2213;49.720;7.296;2023-08-21T07:23:26;20.60;99.90
4399;DHT22;2213;49.720;7.296;2023-08-21T07:25:55;20.70;99.90
4399;DHT22;2213;49.720;7.296;2023-08-21T07:28:28;20.70;99.90
4399;DHT22;2213;49.720;7.296;2023-08-21T07:30:58;20.80;99.90
4399;DHT22;2213;49.720;7.296;2023-08-21T07:33:28;20.80;99.90
4399;DHT22;2213;49.720;7.296;2023-08-21T07:36:00;20.90;99.90
4399;DHT22;2213;49.720;7.296;2023-08-21T07:38:32;20.90;99.90
4399;DHT22;2213;49.720;7.296;2023-08-21T07:41:03;21.00;99.90
4399;DHT22;2213;49.720;7.296;2023-08-21T07:43:35;21.00;99.90
4399;DHT22;2213;49.720;7.296;2023-08-21T07:46:04;21.10;99.90
4399;DHT22;2213;49.720;7.296;2023-08-21T07:48:35;21.20;99.90
4399;DHT22;2213;49.720;7.296;2023-08-21T07:51:03;21.20;99.90
4399;DHT22;2213;49.720;7.296;2023-08-21T07:53:33;21.30;99.90
4399;DHT22;2213;49.720;7.296;2023-08-21T07:56:03;21.30;99.90
4399;DHT22;2213;49.720;7.296;2023-08-21T07:58:36;21.40;99.90
4399;DHT22;2213;49.720;7.296;2023-08-21T08:01:05;21.50;99.90
4399;DHT22;2213;49.720;7.296;2023-08-21T08:03:35;21.50;99.90
4399;DHT22;2213;49.720;7.296;2023-08-21T08:06:05;21.60;99.90
4399;DHT22;2213;49.720;7.296;2023-08-21T08:08:34;21.70;99.90
4399;DHT22;2213;49.720;7.296;2023-08-21T08:11:04;21.70;99.90
4399;DHT22;2213;49.720;7.296;2023-08-21T08:13:35;21.80;99.90
4399;DHT22;2213;49.720;7.296;2023-08-21T08:16:07;21.90;99.90
4399;DHT22;2213;49.720;7.296;2023-08-21T08:18:36;21.90;99.90
4399;DHT22;2213;49.720;7.296;2023-08-21T08:21:07;22.00;99.90
4399;DHT22;2213;49.720;7.296;2023-08-21T08:23:38;22.10;99.90
4399;DHT22;2213;49.720;7.296;2023-08-21T08:26:08;22.20;99.90
4399;DHT22;2213;49.720;7.296;2023-08-21T08:28:40;22.30;99.90
4399;DHT22;2213;49.720;7.296;2023-08-21T08:31:14;22.30;99.90
4399;DHT22;2213;49.720;7.296;2023-08-21T08:33:45;22.40;99.90
4399;DHT22;2213;49.720;7.296;2023-08-21T08:36:16;22.40;99.90
4399;DHT22;2213;49.720;7.296;2023-08-21T08:38:45;22.50;99.90
4399;DHT22;2213;49.720;7.296;2023-08-21T08:41:22;22.60;99.90
4399;DHT22;2213;49.720;7.296;2023-08-21T08:43:57;22.60;99.90
4399;DHT22;2213;49.720;7.296;2023-08-21T08:46:29;22.60;99.90
4399;DHT22;2213;49.720;7.296;2023-08-21T08:48:59;22.70;99.90
4399;DHT22;2213;49.720;7.296;2023-08-21T08:51:31;22.80;99.90
4399;DHT22;2213;49.720;7.296;2023-08-21T08:54:06;22.90;99.90
4399;DHT22;2213;49.720;7.296;2023-08-21T08:56:37;23.00;99.90
4399;DHT22;2213;49.720;7.296;2023-08-21T08:59:09;23.00;99.90
4399;DHT22;2213;49.720;7.296;2023-08-21T09:01:41;23.10;99.90
4399;DHT22;2213;49.720;7.296;2023-08-21T09:04:12;23.10;99.90
4399;DHT22;2213;49.720;7.296;2023-08-21T09:06:41;23.20;99.90
4399;DHT22;2213;49.720;7.296;2023-08-21T09:09:12;23.30;99.90
4399;DHT22;2213;49.720;7.296;2023-08-21T09:11:43;23.30;99.90
4399;DHT22;2213;49.720;7.296;2023-08-21T09:14:26;23.30;99.90
4399;DHT22;2213;49.720;7.296;2023-08-21T09:17:00;23.40;99.90
4399;DHT22;2213;49.720;7.296;2023-08-21T09:19:31;23.50;99.90
4399;DHT22;2213;49.720;7.296;2023-08-21T09:22:08;23.50;99.90
4399;DHT22;2213;49.720;7.296;2023-08-21T09:24:41;23.60;99.90
4399;DHT22;2213;49.720;7.296;2023-08-21T09:27:33;23.60;99.90
4399;DHT22;2213;49.720;7.296;2023-08-21T09:30:08;23.70;99.90
4399;DHT22;2213;49.720;7.296;2023-08-21T09:32:52;23.80;99.90
4399;DHT22;2213;49.720;7.296;2023-08-21T09:35:24;23.90;99.90
4399;DHT22;2213;49.720;7.296;2023-08-21T09:37:54;24.00;99.90
4399;DHT22;2213;49.720;7.296;2023-08-21T09:40:24;24.10;99.90
4399;DHT22;2213;49.720;7.296;2023-08-21T09:42:54;24.10;99.90
4399;DHT22;2213;49.720;7.296;2023-08-21T09:45:27;24.30;99.90
4399;DHT22;2213;49.720;7.296;2023-08-21T09:47:58;24.40;99.90
4399;DHT22;2213;49.720;7.296;2023-08-21T09:50:29;24.40;99.90
4399;DHT22;2213;49.720;7.296;2023-08-21T09:52:59;24.50;99.90
4399;DHT22;2213;49.720;7.296;2023-08-21T09:55:32;24.60;99.90
4399;DHT22;2213;49.720;7.296;2023-08-21T09:58:02;24.70;99.90
4399;DHT22;2213;49.720;7.296;2023-08-21T10:00:35;24.80;99.90
4399;DHT22;2213;49.720;7.296;2023-08-21T10:03:09;24.90;99.90
4399;DHT22;2213;49.720;7.296;2023-08-21T10:05:40;25.10;99.90
4399;DHT22;2213;49.720;7.296;2023-08-21T10:08:11;25.20;99.90
4399;DHT22;2213;49.720;7.296;2023-08-21T10:10:42;25.30;99.90
4399;DHT22;2213;49.720;7.296;2023-08-21T10:13:11;25.30;99.90
4399;DHT22;2213;49.720;7.296;2023-08-21T10:15:44;25.40;99.90
4399;DHT22;2213;49.720;7.296;2023-08-21T10:18:18;25.60;99.90
4399;DHT22;2213;49.720;7.296;2023-08-21T10:20:52;25.60;99.90
4399;DHT22;2213;49.720;7.296;2023-08-21T10:23:27;25.70;99.90
4399;DHT22;2213;49.720;7.296;2023-08-21T10:25:58;25.80;99.90
4399;DHT22;2213;49.720;7.296;2023-08-21T10:28:47;25.90;99.90
4399;DHT22;2213;49.720;7.296;2023-08-21T10:31:31;26.00;99.90
4399;DHT22;2213;49.720;7.296;2023-08-21T10:34:04;26.20;99.90
4399;DHT22;2213;49.720;7.296;2023-08-21T10:36:38;26.20;99.90
4399;DHT22;2213;49.720;7.296;2023-08-21T10:39:30;26.30;99.90
4399;DHT22;2213;49.720;7.296;2023-08-21T10:42:02;26.40;99.90
4399;DHT22;2213;49.720;7.296;2023-08-21T10:44:36;26.40;99.90
4399;DHT22;2213;49.720;7.296;2023-08-21T10:47:19;26.50;99.90
4399;DHT22;2213;49.720;7.296;2023-08-21T10:49:51;26.50;99.90
4399;DHT22;2213;49.720;7.296;2023-08-21T10:52:24;26.50;99.90
4399;DHT22;2213;49.720;7.296;2023-08-21T10:54:55;26.60;99.90
4399;DHT22;2213;49.720;7.296;2023-08-21T10:57:27;26.70;99.90
4399;DHT22;2213;49.720;7.296;2023-08-21T10:59:59;26.70;99.90
4399;DHT22;2213;49.720;7.296;2023-08-21T11:02:32;26.90;99.90
4399;DHT22;2213;49.720;7.296;2023-08-21T11:05:05;26.90;99.90
4399;DHT22;2213;49.720;7.296;2023-08-21T11:07:38;26.90;99.90
4399;DHT22;2213;49.720;7.296;2023-08-21T11:10:13;27.00;99.90
4399;DHT22;2213;49.720;7.296;2023-08-21T11:12:51;27.10;99.90
4399;DHT22;2213;49.720;7.296;2023-08-21T11:15:23;27.00;99.90
4399;DHT22;2213;49.720;7.296;2023-08-21T11:17:56;27.10;99.90
4399;DHT22;2213;49.720;7.296;2023-08-21T11:20:29;27.20;99.90
4399;DHT22;2213;49.720;7.296;2023-08-21T11:22:58;27.10;99.90
4399;DHT22;2213;49.720;7.296;2023-08-21T11:25:29;27.20;99.90
4399;DHT22;2213;49.720;7.296;2023-08-21T11:28:00;27.30;99.90
4399;DHT22;2213;49.720;7.296;2023-08-21T11:30:31;27.20;99.90
4399;DHT22;2213;49.720;7.296;2023-08-21T11:33:10;27.20;99.90
4399;DHT22;2213;49.720;7.296;2023-08-21T11:35:41;27.20;99.90
4399;DHT22;2213;49.720;7.296;2023-08-21T11:38:16;27.30;99.90
4399;DHT22;2213;49.720;7.296;2023-08-21T11:40:53;27.30;99.90
4399;DHT22;2213;49.720;7.296;2023-08-21T11:43:35;27.30;99.90
4399;DHT22;2213;49.720;7.296;2023-08-21T11:46:07;27.20;99.90
4399;DHT22;2213;49.720;7.296;2023-08-21T11:48:41;27.30;99.90
4399;DHT22;2213;49.720;7.296;2023-08-21T11:51:11;27.40;99.90
4399;DHT22;2213;49.720;7.296;2023-08-21T11:53:42;27.40;99.90
4399;DHT22;2213;49.720;7.296;2023-08-21T11:56:12;27.40;99.90
4399;DHT22;2213;49.720;7.296;2023-08-21T11:58:43;27.40;99.90
4399;DHT22;2213;49.720;7.296;2023-08-21T12:01:17;27.50;99.90
4399;DHT22;2213;49.720;7.296;2023-08-21T12:03:50;27.50;99.90
4399;DHT22;2213;49.720;7.296;2023-08-21T12:06:23;27.40;99.90
4399;DHT22;2213;49.720;7.296;2023-08-21T12:08:52;27.60;99.90
4399;DHT22;2213;49.720;7.296;2023-08-21T12:11:23;27.70;99.90
4399;DHT22;2213;49.720;7.296;2023-08-21T12:13:53;28.00;99.90
4399;DHT22;2213;49.720;7.296;2023-08-21T12:16:23;28.00;99.90
4399;DHT22;2213;49.720;7.296;2023-08-21T12:18:54;28.10;99.90
4399;DHT22;2213;49.720;7.296;2023-08-21T12:21:24;27.90;99.90
4399;DHT22;2213;49.720;7.296;2023-08-21T12:23:53;28.10;99.90
4399;DHT22;2213;49.720;7.296;2023-08-21T12:26:23;28.20;99.90
4399;DHT22;2213;49.720;7.296;2023-08-21T12:29:04;28.30;99.90
4399;DHT22;2213;49.720;7.296;2023-08-21T12:31:34;28.40;99.90
4399;DHT22;2213;49.720;7.296;2023-08-21T12:34:05;28.50;99.90
4399;DHT22;2213;49.720;7.296;2023-08-21T12:36:36;28.50;99.90
4399;DHT22;2213;49.720;7.296;2023-08-21T12:39:08;28.60;99.90
4399;DHT22;2213;49.720;7.296;2023-08-21T12:41:38;28.70;99.90
4399;DHT22;2213;49.720;7.296;2023-08-21T12:44:08;28.60;99.90
4399;DHT22;2213;49.720;7.296;2023-08-21T12:46:38;28.70;99.90
4399;DHT22;2213;49.720;7.296;2023-08-21T12:49:09;28.70;99.90
4399;DHT22;2213;49.720;7.296;2023-08-21T12:51:40;28.60;99.90
4399;DHT22;2213;49.720;7.296;2023-08-21T12:54:09;28.70;99.90
4399;DHT22;2213;49.720;7.296;2023-08-21T12:56:38;28.70;99.90
4399;DHT22;2213;49.720;7.296;2023-08-21T12:59:08;28.90;99.90
4399;DHT22;2213;49.720;7.296;2023-08-21T13:01:39;29.00;99.90
4399;DHT22;2213;49.720;7.296;2023-08-21T13:04:10;28.90;99.90
4399;DHT22;2213;49.720;7.296;2023-08-21T13:06:40;29.00;99.90
4399;DHT22;2213;49.720;7.296;2023-08-21T13:09:10;28.90;99.90
4399;DHT22;2213;49.720;7.296;2023-08-21T13:11:40;29.00;99.90
4399;DHT22;2213;49.720;7.296;2023-08-21T13:14:09;28.90;99.90
4399;DHT22;2213;49.720;7.296;2023-08-21T13:16:40;29.00;99.90
4399;DHT22;2213;49.720;7.296;2023-08-21T13:19:11;29.10;99.90
4399;DHT22;2213;49.720;7.296;2023-08-21T13:21:41;29.20;99.90
4399;DHT22;2213;49.720;7.296;2023-08-21T13:24:12;28.80;99.90
4399;DHT22;2213;49.720;7.296;2023-08-21T13:26:42;28.90;99.90
4399;DHT22;2213;49.720;7.296;2023-08-21T13:29:12;28.90;99.90
4399;DHT22;2213;49.720;7.296;2023-08-21T13:31:41;29.00;99.90
4399;DHT22;2213;49.720;7.296;2023-08-21T13:34:12;29.00;99.90
4399;DHT22;2213;49.720;7.296;2023-08-21T13:36:42;29.10;99.90
4399;DHT22;2213;49.720;7.296;2023-08-21T13:39:11;29.00;99.90
4399;DHT22;2213;49.720;7.296;2023-08-21T13:41:43;29.00;99.90
4399;DHT22;2213;49.720;7.296;2023-08-21T13:44:13;29.00;99.90
4399;DHT22;2213;49.720;7.296;2023-08-21T13:46:46;29.20;99.90
4399;DHT22;2213;49.720;7.296;2023-08-21T13:49:18;29.30;99.90
4399;DHT22;2213;49.720;7.296;2023-08-21T13:51:47;29.40;99.90
4399;DHT22;2213;49.720;7.296;2023-08-21T13:54:17;29.60;99.90
4399;DHT22;2213;49.720;7.296;2023-08-21T13:56:47;29.80;99.90
4399;DHT22;2213;49.720;7.296;2023-08-21T13:59:18;30.20;99.90
4399;DHT22;2213;49.720;7.296;2023-08-21T14:01:51;30.20;99.90
4399;DHT22;2213;49.720;7.296;2023-08-21T14:04:24;29.90;99.40
4399;DHT22;2213;49.720;7.296;2023-08-21T14:06:55;30.00;99.90
4399;DHT22;2213;49.720;7.296;2023-08-21T14:09:25;30.20;98.70
4399;DHT22;2213;49.720;7.296;2023-08-21T14:11:55;30.10;98.10
4399;DHT22;2213;49.720;7.296;2023-08-21T14:14:25;30.00;98.30
4399;DHT22;2213;49.720;7.296;2023-08-21T14:16:55;30.20;98.80
4399;DHT22;2213;49.720;7.296;2023-08-21T14:19:27;30.20;99.30
4399;DHT22;2213;49.720;7.296;2023-08-21T14:21:58;30.00;99.40
4399;DHT22;2213;49.720;7.296;2023-08-21T14:24:27;30.10;99.70
4399;DHT22;2213;49.720;7.296;2023-08-21T14:26:58;30.20;99.90
4399;DHT22;2213;49.720;7.296;2023-08-21T14:29:29;30.30;99.90
4399;DHT22;2213;49.720;7.296;2023-08-21T14:32:02;30.40;99.70
4399;DHT22;2213;49.720;7.296;2023-08-21T14:34:34;30.40;99.00
4399;DHT22;2213;49.720;7.296;2023-08-21T14:37:04;30.50;99.80
4399;DHT22;2213;49.720;7.296;2023-08-21T14:39:34;30.40;99.70
4399;DHT22;2213;49.720;7.296;2023-08-21T14:42:04;30.20;99.20
4399;DHT22;2213;49.720;7.296;2023-08-21T14:44:34;30.00;99.70
4399;DHT22;2213;49.720;7.296;2023-08-21T14:47:04;30.10;99.60
4399;DHT22;2213;49.720;7.296;2023-08-21T14:49:36;30.10;99.90
4399;DHT22;2213;49.720;7.296;2023-08-21T14:52:06;30.10;99.80
4399;DHT22;2213;49.720;7.296;2023-08-21T14:54:35;30.10;99.90
4399;DHT22;2213;49.720;7.296;2023-08-21T14:57:05;30.20;99.90
4399;DHT22;2213;49.720;7.296;2023-08-21T14:59:35;30.10;99.90
4399;DHT22;2213;49.720;7.296;2023-08-21T15:02:05;30.00;99.90
4399;DHT22;2213;49.720;7.296;2023-08-21T15:04:36;29.90;99.90
4399;DHT22;2213;49.720;7.296;2023-08-21T15:07:04;29.90;99.90
4399;DHT22;2213;49.720;7.296;2023-08-21T15:09:35;29.90;99.90
4399;DHT22;2213;49.720;7.296;2023-08-21T15:12:05;30.00;99.90
4399;DHT22;2213;49.720;7.296;2023-08-21T15:14:37;29.90;99.90
4399;DHT22;2213;49.720;7.296;2023-08-21T15:17:07;29.90;99.90
4399;DHT22;2213;49.720;7.296;2023-08-21T15:19:47;29.90;99.90
4399;DHT22;2213;49.720;7.296;2023-08-21T15:22:18;29.90;99.90
4399;DHT22;2213;49.720;7.296;2023-08-21T15:24:51;29.70;99.90
4399;DHT22;2213;49.720;7.296;2023-08-21T15:27:20;29.60;99.90
4399;DHT22;2213;49.720;7.296;2023-08-21T15:29:51;29.60;99.90
4399;DHT22;2213;49.720;7.296;2023-08-21T15:32:21;29.70;99.90
4399;DHT22;2213;49.720;7.296;2023-08-21T15:34:52;29.60;99.90
4399;DHT22;2213;49.720;7.296;2023-08-21T15:37:22;29.70;99.90
4399;DHT22;2213;49.720;7.296;2023-08-21T15:39:53;29.60;99.90
4399;DHT22;2213;49.720;7.296;2023-08-21T15:42:22;29.70;99.90
4399;DHT22;2213;49.720;7.296;2023-08-21T15:44:51;29.80;99.90
4399;DHT22;2213;49.720;7.296;2023-08-21T15:47:21;29.90;99.90
4399;DHT22;2213;49.720;7.296;2023-08-21T15:50:11;30.00;99.90
4399;DHT22;2213;49.720;7.296;2023-08-21T15:52:41;30.10;99.90
4399;DHT22;2213;49.720;7.296;2023-08-21T15:55:11;30.10;99.90
4399;DHT22;2213;49.720;7.296;2023-08-21T15:57:40;30.20;99.90
4399;DHT22;2213;49.720;7.296;2023-08-21T16:00:12;30.20;99.90
4399;DHT22;2213;49.720;7.296;2023-08-21T16:02:43;30.20;99.90
4399;DHT22;2213;49.720;7.296;2023-08-21T16:05:15;30.10;99.90
4399;DHT22;2213;49.720;7.296;2023-08-21T16:07:46;30.10;99.90
4399;DHT22;2213;49.720;7.296;2023-08-21T16:10:16;30.10;99.90
4399;DHT22;2213;49.720;7.296;2023-08-21T16:12:46;30.10;99.90
4399;DHT22;2213;49.720;7.296;2023-08-21T16:15:15;29.90;99.90
4399;DHT22;2213;49.720;7.296;2023-08-21T16:17:45;29.90;99.90
4399;DHT22;2213;49.720;7.296;2023-08-21T16:20:17;29.90;99.90
4399;DHT22;2213;49.720;7.296;2023-08-21T16:22:48;29.90;99.90
4399;DHT22;2213;49.720;7.296;2023-08-21T16:25:18;29.90;99.90
4399;DHT22;2213;49.720;7.296;2023-08-21T16:27:48;29.80;99.90